createdAt,value
2024-05-09T00:01:14.080Z,7.30
2024-05-09T00:03:47.062Z,7.77
2024-05-09T00:06:17.755Z,7.37
2024-05-09T00:08:48.246Z,7.33
2024-05-09T00:11:23.231Z,7.83
2024-05-09T00:13:53.827Z,8.07
2024-05-09T00:16:24.300Z,7.83
2024-05-09T00:18:55.742Z,7.70
2024-05-09T00:21:26.181Z,8.47
2024-05-09T00:23:56.647Z,8.37
2024-05-09T00:26:30.379Z,8.47
2024-05-09T00:29:01.729Z,6.97
2024-05-09T00:31:32.215Z,6.87
2024-05-09T00:34:02.866Z,7.30
2024-05-09T00:36:33.488Z,7.93
2024-05-09T00:39:03.927Z,8.40
2024-05-09T00:41:37.142Z,8.63
2024-05-09T00:44:08.936Z,8.17
2024-05-09T00:46:39.364Z,8.70
2024-05-09T00:49:10.457Z,9.73
2024-05-09T00:51:44.984Z,9.10
2024-05-09T00:54:15.627Z,9.90
2024-05-09T00:56:49.255Z,10.47
2024-05-09T00:59:19.784Z,12.50
2024-05-09T01:01:51.095Z,16.33
2024-05-09T01:04:21.727Z,15.57
2024-05-09T01:06:52.262Z,15.27
2024-05-09T01:09:22.815Z,16.07
2024-05-09T01:11:56.303Z,16.87
2024-05-09T01:14:28.514Z,15.87
2024-05-09T01:16:59.217Z,14.33
2024-05-09T01:19:32.281Z,12.03
2024-05-09T01:22:04.448Z,11.40
2024-05-09T01:24:37.750Z,13.50
2024-05-09T01:27:09.149Z,16.40
2024-05-09T01:29:39.700Z,14.53
2024-05-09T01:32:10.560Z,14.00
2024-05-09T01:34:41.076Z,13.80
2024-05-09T01:37:11.521Z,14.53
2024-05-09T01:39:44.549Z,13.77
2024-05-09T01:42:16.664Z,11.77
2024-05-09T01:44:47.201Z,10.10
2024-05-09T01:47:17.886Z,10.20
2024-05-09T01:49:48.378Z,9.67
2024-05-09T01:52:18.840Z,9.93
2024-05-09T01:54:51.906Z,9.83
2024-05-09T01:57:22.420Z,9.47
2024-05-09T01:59:53.718Z,9.33
2024-05-09T02:02:24.405Z,9.33
2024-05-09T02:04:54.999Z,10.47
2024-05-09T02:07:25.536Z,10.77
2024-05-09T02:09:58.735Z,10.87
2024-05-09T02:12:29.285Z,11.23
2024-05-09T02:14:59.803Z,11.67
2024-05-09T02:17:30.371Z,13.17
2024-05-09T02:20:01.779Z,12.67
2024-05-09T02:22:32.305Z,12.87
2024-05-09T02:25:05.448Z,11.77
2024-05-09T02:27:35.903Z,12.73
2024-05-09T02:30:15.138Z,13.97
2024-05-09T02:32:53.383Z,12.50
2024-05-09T02:35:24.019Z,13.30
2024-05-09T02:37:53.647Z,13.10
2024-05-09T02:40:35.548Z,13.30
2024-05-09T02:43:10.610Z,14.30
2024-05-09T02:45:39.683Z,13.30
2024-05-09T02:48:14.043Z,13.07
2024-05-09T02:50:44.417Z,12.67
2024-05-09T02:53:15.728Z,13.40
2024-05-09T02:55:46.436Z,13.03
2024-05-09T02:58:16.919Z,12.90
2024-05-09T03:00:44.665Z,13.33
2024-05-09T03:03:15.886Z,12.03
2024-05-09T03:05:44.780Z,11.10
2024-05-09T03:08:15.880Z,12.07
2024-05-09T03:10:47.342Z,12.83
2024-05-09T03:13:17.884Z,12.20
2024-05-09T03:15:45.922Z,12.97
2024-05-09T03:18:16.597Z,12.60
2024-05-09T03:20:44.812Z,12.37
2024-05-09T03:23:15.518Z,12.83
2024-05-09T03:25:46.891Z,12.60
2024-05-09T03:28:17.367Z,13.43
2024-05-09T03:30:45.139Z,12.17
2024-05-09T03:33:19.431Z,10.97
2024-05-09T03:35:49.084Z,10.17
2024-05-09T03:38:20.044Z,10.17
2024-05-09T03:40:53.488Z,10.30
2024-05-09T03:43:24.021Z,10.63
2024-05-09T03:45:54.452Z,9.70
2024-05-09T03:48:22.344Z,10.20
2024-05-09T03:50:53.641Z,11.00
2024-05-09T03:53:23.049Z,10.23
2024-05-09T03:55:57.122Z,11.03
2024-05-09T03:58:24.999Z,10.67
2024-05-09T04:00:55.467Z,11.60
2024-05-09T04:03:24.479Z,10.83
2024-05-09T04:05:56.427Z,12.07
2024-05-09T04:08:24.334Z,13.43
2024-05-09T04:10:57.410Z,13.23
2024-05-09T04:13:25.271Z,12.27
2024-05-09T04:15:55.699Z,13.03
2024-05-09T04:18:24.362Z,12.87
2024-05-09T04:20:54.828Z,13.70
2024-05-09T04:23:22.774Z,13.67
2024-05-09T04:25:57.162Z,12.70
2024-05-09T04:28:24.987Z,12.20
2024-05-09T04:30:55.428Z,11.50
2024-05-09T04:33:23.391Z,10.57
2024-05-09T04:35:55.939Z,9.70
2024-05-09T04:38:23.986Z,9.97
2024-05-09T04:40:57.120Z,10.40
2024-05-09T04:43:25.898Z,10.20
2024-05-09T04:45:57.118Z,9.70
2024-05-09T04:48:25.131Z,9.10
2024-05-09T04:50:55.672Z,9.00
2024-05-09T04:53:24.490Z,8.93
2024-05-09T04:55:57.736Z,9.93
2024-05-09T04:58:25.651Z,11.27
2024-05-09T05:00:57.349Z,11.53
2024-05-09T05:03:25.348Z,11.33
2024-05-09T05:05:56.045Z,11.10
2024-05-09T05:08:24.012Z,10.90
2024-05-09T05:10:57.226Z,10.73
2024-05-09T05:13:25.829Z,10.30
2024-05-09T05:15:58.368Z,9.80
2024-05-09T05:18:27.928Z,9.90
2024-05-09T05:20:59.465Z,9.57
2024-05-09T05:23:29.805Z,8.77
2024-05-09T05:26:02.987Z,7.63
2024-05-09T05:28:33.487Z,9.73
2024-05-09T05:31:01.185Z,9.77
2024-05-09T05:33:31.850Z,9.33
2024-05-09T05:35:59.648Z,10.30
2024-05-09T05:38:30.107Z,10.63
2024-05-09T05:41:00.743Z,11.50
2024-05-09T05:43:31.416Z,11.30
2024-05-09T05:45:59.138Z,11.70
2024-05-09T05:48:30.438Z,11.10
2024-05-09T05:51:00.399Z,12.40
2024-05-09T05:53:32.376Z,11.93
2024-05-09T05:56:02.930Z,11.37
2024-05-09T05:58:34.212Z,13.67
2024-05-09T06:01:01.997Z,13.33
2024-05-09T06:03:32.646Z,13.17
2024-05-09T06:06:03.268Z,13.10
2024-05-09T06:08:33.962Z,14.33
2024-05-09T06:11:04.733Z,13.00
2024-05-09T06:13:35.234Z,13.60
2024-05-09T06:16:05.129Z,13.13
2024-05-09T06:18:35.885Z,13.07
2024-05-09T06:21:04.142Z,12.43
2024-05-09T06:23:34.893Z,13.80
2024-05-09T06:26:08.456Z,11.97
2024-05-09T06:28:36.540Z,9.90
2024-05-09T06:31:07.092Z,10.63
2024-05-09T06:33:36.042Z,12.43
2024-05-09T06:36:06.587Z,11.67
2024-05-09T06:38:35.309Z,13.07
2024-05-09T06:41:08.922Z,11.90
2024-05-09T06:43:37.575Z,11.53
2024-05-09T06:46:08.137Z,11.40
2024-05-09T06:48:36.081Z,11.33
2024-05-09T06:51:06.823Z,11.50
2024-05-09T06:53:34.906Z,11.13
2024-05-09T06:56:14.544Z,10.03
2024-05-09T06:58:43.220Z,9.13
2024-05-09T07:01:13.737Z,8.83
2024-05-09T07:03:42.473Z,9.80
2024-05-09T07:06:13.029Z,9.67
2024-05-09T07:08:41.393Z,9.70
2024-05-09T07:11:14.758Z,9.43
2024-05-09T07:13:42.753Z,8.37
2024-05-09T07:16:13.133Z,7.23
2024-05-09T07:18:41.335Z,7.77
2024-05-09T07:21:12.356Z,6.90
2024-05-09T07:23:42.498Z,7.13
2024-05-09T07:26:16.927Z,7.00
2024-05-09T07:28:47.448Z,7.60
2024-05-09T07:31:17.942Z,7.10
2024-05-09T07:33:46.082Z,6.63
2024-05-09T07:36:16.614Z,5.00
2024-05-09T07:38:44.478Z,5.00
2024-05-09T07:41:17.646Z,5.23
2024-05-09T07:43:45.629Z,5.20
2024-05-09T07:47:14.198Z,5.63
2024-05-09T07:50:53.290Z,6.27
2024-05-09T07:53:21.689Z,6.00
2024-05-09T07:54:45.055Z,6.97
2024-05-09T07:57:18.390Z,7.77
2024-05-09T07:59:47.142Z,7.20
2024-05-09T08:02:17.614Z,8.40
2024-05-09T08:04:45.595Z,6.67
2024-05-09T08:07:16.104Z,6.93
2024-05-09T08:09:46.374Z,7.50
2024-05-09T08:12:22.655Z,6.53
2024-05-09T08:14:53.167Z,7.23
2024-05-09T08:17:23.838Z,7.10
2024-05-09T08:19:51.645Z,6.40
2024-05-09T08:22:22.045Z,6.43
2024-05-09T08:24:49.831Z,5.90
2024-05-09T08:27:22.913Z,6.27
2024-05-09T08:29:50.855Z,7.30
2024-05-09T08:32:21.381Z,5.40
2024-05-09T08:34:50.248Z,5.57
2024-05-09T08:37:23.454Z,4.47
2024-05-09T08:39:54.044Z,5.20
2024-05-09T08:42:27.452Z,3.97
2024-05-09T08:44:55.281Z,4.57
2024-05-09T08:47:25.763Z,4.67
2024-05-09T08:49:58.730Z,5.10
2024-05-09T08:52:30.215Z,4.10
2024-05-09T08:54:58.096Z,4.73
2024-05-09T08:57:33.139Z,4.20
2024-05-09T09:00:12.507Z,3.93
2024-05-09T09:02:49.302Z,3.90
2024-05-09T09:05:21.590Z,4.07
2024-05-09T09:07:53.050Z,3.80
2024-05-09T09:10:29.670Z,3.40
2024-05-09T09:13:09.924Z,2.93
2024-05-09T09:15:48.054Z,3.30
2024-05-09T09:18:20.046Z,3.50
2024-05-09T09:20:47.984Z,3.03
2024-05-09T09:23:18.542Z,3.17
2024-05-09T09:25:46.404Z,3.90
2024-05-09T09:28:19.671Z,2.90
2024-05-09T09:30:47.622Z,3.80
2024-05-09T09:33:20.509Z,3.63
2024-05-09T09:35:48.501Z,3.50
2024-05-09T09:38:22.858Z,3.30
2024-05-09T09:40:51.477Z,2.70
2024-05-09T09:43:25.280Z,3.27
2024-05-09T09:45:55.550Z,3.70
2024-05-09T09:48:26.522Z,3.70
2024-05-09T09:50:55.683Z,3.70
2024-05-09T09:53:26.988Z,2.90
2024-05-09T09:55:56.126Z,2.93
2024-05-09T09:58:30.374Z,3.40
2024-05-09T10:01:01.854Z,2.70
2024-05-09T10:03:32.997Z,3.20
2024-05-09T10:06:01.345Z,2.92
2024-05-09T10:08:32.774Z,3.00
2024-05-09T10:11:04.451Z,2.67
2024-05-09T10:13:40.475Z,2.70
2024-05-09T10:16:10.822Z,2.17
2024-05-09T10:18:42.284Z,2.72
2024-05-09T10:21:17.747Z,2.60
2024-05-09T10:23:59.356Z,2.90
2024-05-09T10:26:34.673Z,2.92
2024-05-09T10:29:15.083Z,4.32
2024-05-09T10:31:43.985Z,8.05
2024-05-09T10:34:20.842Z,5.28
2024-05-09T10:36:53.832Z,2.55
2024-05-09T10:39:25.067Z,2.60
2024-05-09T10:41:53.781Z,1.98
2024-05-09T10:44:26.838Z,2.33
2024-05-09T10:46:56.131Z,3.20
2024-05-09T10:49:26.656Z,2.40
2024-05-09T10:51:54.547Z,2.58
2024-05-09T10:54:25.054Z,2.85
2024-05-09T10:56:57.481Z,2.30
2024-05-09T10:59:36.175Z,2.10
2024-05-09T11:02:08.185Z,2.50
2024-05-09T11:04:40.033Z,2.05
2024-05-09T11:07:10.915Z,2.38
2024-05-09T11:09:42.108Z,3.03
2024-05-09T11:12:10.324Z,3.60
2024-05-09T11:14:43.449Z,8.32
2024-05-09T11:17:11.402Z,5.35
2024-05-09T11:19:45.079Z,5.10
2024-05-09T11:22:14.850Z,2.72
2024-05-09T11:24:45.430Z,3.58
2024-05-09T11:27:13.445Z,4.40
2024-05-09T11:29:47.659Z,6.68
2024-05-09T11:32:16.776Z,2.70
2024-05-09T11:34:47.216Z,2.42
2024-05-09T11:37:15.145Z,2.80
2024-05-09T11:39:45.782Z,2.45
2024-05-09T11:42:14.523Z,4.75
2024-05-09T11:44:47.600Z,6.13
2024-05-09T11:47:15.793Z,2.53
2024-05-09T11:49:47.096Z,2.40
2024-05-09T11:52:14.982Z,2.58
2024-05-09T11:54:45.548Z,3.08
2024-05-09T11:57:13.393Z,3.95
2024-05-09T11:59:46.514Z,1.85
2024-05-09T12:02:16.866Z,2.05
2024-05-09T12:04:48.894Z,1.83
2024-05-09T12:07:18.384Z,2.20
2024-05-09T12:09:48.956Z,2.28
2024-05-09T12:12:16.897Z,1.70
2024-05-09T12:14:53.385Z,11.02
2024-05-09T12:17:32.621Z,2.03
2024-05-09T12:20:00.632Z,2.17
2024-05-09T12:22:31.087Z,12.13
2024-05-09T12:24:59.014Z,1.77
2024-05-09T12:27:29.452Z,1.83
2024-05-09T12:29:59.923Z,1.52
2024-05-09T12:32:30.441Z,1.75
2024-05-09T12:34:58.325Z,1.50
2024-05-09T12:37:29.017Z,1.58
2024-05-09T12:39:57.404Z,1.80
2024-05-09T12:42:29.090Z,2.10
2024-05-09T12:45:00.483Z,1.70
2024-05-09T12:47:31.172Z,2.00
2024-05-09T12:49:59.009Z,2.22
2024-05-09T12:52:29.483Z,2.67
2024-05-09T12:54:58.162Z,2.08
2024-05-09T12:57:28.739Z,2.25
2024-05-09T12:59:57.028Z,2.30
2024-05-09T13:02:30.268Z,2.30
2024-05-09T13:04:58.307Z,2.30
2024-05-09T13:07:28.876Z,2.20
2024-05-09T13:09:56.734Z,2.42
2024-05-09T13:12:29.705Z,1.73
2024-05-09T13:14:58.694Z,1.80
2024-05-09T13:17:31.904Z,1.67
2024-05-09T13:20:03.328Z,2.58
2024-05-09T13:22:34.880Z,2.03
2024-05-09T13:25:02.782Z,1.90
2024-05-09T13:27:33.206Z,2.10
2024-05-09T13:30:01.085Z,2.75
2024-05-09T13:32:34.262Z,1.77
2024-05-09T13:35:02.436Z,1.80
2024-05-09T13:37:33.207Z,2.10
2024-05-09T13:40:01.276Z,2.17
2024-05-09T13:42:32.498Z,1.90
2024-05-09T13:45:00.404Z,2.60
2024-05-09T13:47:33.678Z,2.10
2024-05-09T13:50:06.936Z,2.40
2024-05-09T13:52:37.556Z,2.50
2024-05-09T13:55:08.835Z,2.30
2024-05-09T13:57:36.767Z,2.90
2024-05-09T14:00:22.210Z,2.55
2024-05-09T14:03:01.831Z,1.90
2024-05-09T14:05:32.686Z,1.55
2024-05-09T14:08:01.065Z,1.73
2024-05-09T14:10:32.445Z,2.10
2024-05-09T14:13:01.258Z,1.83
2024-05-09T14:15:31.951Z,1.65
2024-05-09T14:18:03.109Z,2.00
2024-05-09T14:20:37.126Z,2.00
2024-05-09T14:23:07.499Z,1.85
2024-05-09T14:25:42.115Z,2.30
2024-05-09T14:28:14.570Z,1.80
2024-05-09T14:30:45.304Z,1.98
2024-05-09T14:33:20.812Z,1.60
2024-05-09T14:35:51.449Z,1.80
2024-05-09T14:38:19.302Z,1.63
2024-05-09T14:40:50.781Z,1.58
2024-05-09T14:43:19.146Z,1.90
2024-05-09T14:45:49.934Z,1.83
2024-05-09T14:48:20.677Z,2.10
2024-05-09T14:50:51.150Z,1.92
2024-05-09T14:53:19.047Z,2.03
2024-05-09T14:55:50.005Z,1.45
2024-05-09T14:58:20.475Z,1.83
2024-05-09T15:00:51.903Z,2.17
2024-05-09T15:03:23.080Z,1.97
2024-05-09T15:05:53.835Z,1.47
2024-05-09T15:08:21.727Z,1.47
2024-05-09T15:10:52.613Z,1.77
2024-05-09T15:13:21.521Z,2.00
2024-05-09T15:15:52.142Z,1.93
2024-05-09T15:18:23.016Z,1.97
2024-05-09T15:20:57.092Z,2.00
2024-05-09T15:23:25.104Z,2.93
2024-05-09T15:25:55.558Z,2.10
2024-05-09T15:28:23.817Z,1.73
2024-05-09T15:30:54.361Z,1.73
2024-05-09T15:33:24.838Z,1.77
2024-05-09T15:35:55.282Z,1.50
2024-05-09T15:38:23.090Z,1.43
2024-05-09T15:40:53.755Z,1.60
2024-05-09T15:43:21.857Z,1.83
2024-05-09T15:45:52.483Z,1.50
2024-05-09T15:48:20.701Z,1.60
2024-05-09T15:50:54.006Z,2.03
2024-05-09T15:53:21.994Z,1.30
2024-05-09T15:55:52.477Z,1.70
2024-05-09T15:58:20.656Z,2.40
2024-05-09T16:00:52.433Z,2.20
2024-05-09T16:03:21.543Z,2.03
2024-05-09T16:05:57.676Z,1.80
2024-05-09T16:08:25.798Z,2.00
2024-05-09T16:10:56.494Z,2.10
2024-05-09T16:13:24.653Z,1.67
2024-05-09T16:15:56.400Z,2.07
2024-05-09T16:18:24.400Z,2.17
2024-05-09T16:21:00.410Z,2.13
2024-05-09T16:23:28.733Z,2.30
2024-05-09T16:25:59.814Z,2.20
2024-05-09T16:28:27.617Z,2.60
2024-05-09T16:30:58.365Z,2.80
2024-05-09T16:33:26.395Z,2.70
2024-05-09T16:36:00.257Z,2.23
2024-05-09T16:38:28.052Z,3.00
2024-05-09T16:40:58.433Z,4.50
2024-05-09T16:43:26.417Z,4.10
2024-05-09T16:45:56.968Z,1.63
2024-05-09T16:48:24.879Z,1.60
2024-05-09T16:50:55.309Z,1.80
2024-05-09T16:53:27.835Z,1.83
2024-05-09T16:55:58.411Z,1.60
2024-05-09T16:58:26.715Z,1.70
2024-05-09T17:00:57.260Z,1.97
2024-05-09T17:03:25.283Z,1.80
2024-05-09T17:05:56.083Z,4.30
2024-05-09T17:08:26.671Z,5.17
2024-05-09T17:10:57.191Z,4.00
2024-05-09T17:13:27.865Z,2.07
2024-05-09T17:15:58.534Z,3.40
2024-05-09T17:18:26.392Z,2.97
2024-05-09T17:20:56.981Z,3.43
2024-05-09T17:23:28.181Z,1.70
2024-05-09T17:26:02.963Z,1.90
2024-05-09T17:28:30.894Z,1.70
2024-05-09T17:31:01.301Z,3.23
2024-05-09T17:33:29.337Z,14.23
2024-05-09T17:35:59.824Z,4.13
2024-05-09T17:38:30.425Z,2.83
2024-05-09T17:41:00.916Z,2.90
2024-05-09T17:43:29.232Z,4.63
2024-05-09T17:45:59.840Z,1.90
2024-05-09T17:48:27.832Z,3.87
2024-05-09T17:50:58.262Z,4.23
2024-05-09T17:53:25.983Z,2.40
2024-05-09T17:56:00.548Z,2.00
2024-05-09T17:58:28.536Z,2.50
2024-05-09T18:01:01.993Z,3.07
2024-05-09T18:03:30.186Z,3.30
2024-05-09T18:06:01.172Z,3.67
2024-05-09T18:08:29.076Z,2.20
2024-05-09T18:11:02.349Z,3.20
2024-05-09T18:13:30.387Z,3.40
2024-05-09T18:16:00.998Z,3.10
2024-05-09T18:18:28.967Z,3.20
2024-05-09T18:20:59.471Z,3.70
2024-05-09T18:23:28.042Z,3.10
2024-05-09T18:25:58.513Z,3.60
2024-05-09T18:28:32.087Z,3.10
2024-05-09T18:31:02.589Z,2.30
2024-05-09T18:33:30.417Z,3.00
2024-05-09T18:36:01.039Z,3.50
2024-05-09T18:38:28.880Z,4.10
2024-05-09T18:40:59.294Z,3.20
2024-05-09T18:43:31.675Z,3.70
2024-05-09T18:46:11.654Z,2.90
2024-05-09T18:48:40.634Z,3.17
2024-05-09T18:51:12.094Z,3.30
2024-05-09T18:53:40.878Z,3.07
2024-05-09T18:56:12.244Z,3.70
2024-05-09T18:58:40.000Z,3.03
2024-05-09T19:01:13.899Z,3.13
2024-05-09T19:03:42.216Z,3.63
2024-05-09T19:06:12.792Z,5.03
2024-05-09T19:08:41.357Z,4.13
2024-05-09T19:11:11.798Z,4.63
2024-05-09T19:13:39.776Z,5.33
2024-05-09T19:16:13.104Z,6.43
2024-05-09T19:18:42.005Z,7.20
2024-05-09T19:21:14.429Z,5.23
2024-05-09T19:23:47.214Z,5.93
2024-05-09T19:26:22.501Z,8.40
2024-05-09T19:28:52.935Z,5.27
2024-05-09T19:31:26.202Z,9.60
2024-05-09T19:33:54.086Z,7.37
2024-05-09T19:36:24.592Z,5.33
2024-05-09T19:38:52.438Z,5.77
2024-05-09T19:41:23.839Z,5.47
2024-05-09T19:43:51.637Z,4.77
2024-05-09T19:46:22.282Z,4.13
2024-05-09T19:48:53.072Z,4.90
2024-05-09T19:51:23.625Z,4.23
2024-05-09T19:53:51.416Z,5.07
2024-05-09T19:56:21.738Z,3.67
2024-05-09T19:58:50.319Z,4.13
2024-05-09T20:01:21.007Z,3.90
2024-05-09T20:03:53.401Z,4.07
2024-05-09T20:06:26.430Z,2.80
2024-05-09T20:08:57.282Z,4.30
2024-05-09T20:11:28.123Z,2.53
2024-05-09T20:13:58.607Z,2.37
2024-05-09T20:16:29.189Z,3.33
2024-05-09T20:19:00.008Z,5.03
2024-05-09T20:21:30.617Z,5.40
2024-05-09T20:23:58.408Z,5.73
2024-05-09T20:26:30.855Z,4.83
2024-05-09T20:29:23.635Z,4.47
2024-05-09T20:31:54.189Z,5.70
2024-05-09T20:34:24.781Z,6.07
2024-05-09T20:36:55.337Z,6.60
2024-05-09T20:39:26.151Z,5.30
2024-05-09T20:41:56.962Z,4.63
2024-05-09T20:44:24.728Z,4.23
2024-05-09T20:46:55.128Z,4.23
2024-05-09T20:49:25.867Z,3.63
2024-05-09T20:51:56.467Z,4.00
2024-05-09T20:54:24.303Z,4.03
2024-05-09T20:56:54.753Z,3.70
2024-05-09T20:59:22.617Z,3.43
2024-05-09T21:01:53.113Z,3.90
2024-05-09T21:04:21.793Z,4.43
2024-05-09T21:06:55.164Z,4.27
2024-05-09T21:09:25.818Z,4.53
2024-05-09T21:11:56.238Z,4.50
2024-05-09T21:14:24.887Z,5.83
2024-05-09T21:16:55.382Z,4.63
2024-05-09T21:19:23.294Z,3.93
2024-05-09T21:21:56.368Z,3.93
2024-05-09T21:24:25.009Z,4.30
2024-05-09T21:26:55.314Z,3.90
2024-05-09T21:29:26.480Z,3.40
2024-05-09T21:31:56.927Z,3.00
2024-05-09T21:34:24.870Z,3.60
2024-05-09T21:36:57.948Z,3.40
2024-05-09T21:39:25.812Z,3.60
2024-05-09T21:41:59.015Z,4.30
2024-05-09T21:44:26.827Z,5.80
2024-05-09T21:46:57.290Z,6.20
2024-05-09T21:49:25.159Z,4.37
2024-05-09T21:51:58.271Z,4.83
2024-05-09T21:54:26.048Z,3.90
2024-05-09T21:56:56.486Z,3.60
2024-05-09T21:59:24.317Z,3.80
2024-05-09T22:01:54.846Z,3.80
2024-05-09T22:04:24.063Z,4.00
2024-05-09T22:06:57.333Z,3.10
2024-05-09T22:09:25.171Z,4.20
2024-05-09T22:11:57.567Z,3.53
2024-05-09T22:14:25.909Z,3.43
2024-05-09T22:16:56.349Z,3.70
2024-05-09T22:19:24.281Z,5.53
2024-05-09T22:21:57.430Z,4.77
2024-05-09T22:24:25.319Z,4.50
2024-05-09T22:26:55.683Z,6.10
2024-05-09T22:29:24.254Z,3.43
2024-05-09T22:32:19.590Z,3.80
2024-05-09T22:34:48.241Z,3.40
2024-05-09T22:37:21.311Z,3.30
2024-05-09T22:39:49.160Z,3.00
2024-05-09T22:42:19.528Z,3.20
2024-05-09T22:44:47.285Z,2.93
2024-05-09T22:47:17.670Z,3.57
2024-05-09T22:49:45.725Z,4.00
2024-05-09T22:52:16.249Z,3.47
2024-05-09T22:54:46.837Z,4.00
2024-05-09T22:57:18.089Z,5.03
2024-05-09T22:59:46.687Z,4.43
2024-05-09T23:02:17.179Z,3.40
2024-05-09T23:04:45.108Z,3.60
2024-05-09T23:07:16.988Z,3.63
2024-05-09T23:09:51.166Z,3.90
2024-05-09T23:12:19.025Z,3.43
2024-05-09T23:14:49.851Z,3.43
2024-05-09T23:17:17.818Z,3.00
2024-05-09T23:19:48.244Z,2.80
2024-05-09T23:22:16.158Z,3.00
2024-05-09T23:24:47.393Z,3.53
2024-05-09T23:27:17.837Z,3.03
2024-05-09T23:29:48.168Z,3.30
2024-05-09T23:32:17.957Z,3.37
2024-05-09T23:34:48.438Z,3.33
2024-05-09T23:37:16.350Z,3.30
2024-05-09T23:39:46.825Z,4.13
2024-05-09T23:42:17.393Z,3.40
2024-05-09T23:44:47.749Z,3.30
2024-05-09T23:47:15.600Z,3.30
2024-05-09T23:49:46.011Z,3.47
2024-05-09T23:52:14.013Z,3.30
2024-05-09T23:54:44.794Z,3.20
2024-05-09T23:57:12.727Z,3.50
2024-05-09T23:59:45.883Z,3.40
